Georgetown, Maine
Current Conditions -  °F | °C
As of 2:53 PM on Friday 24 Oct 2014 (Local Time) from KIWI Reporting Station
Overcast Overcast  
Wind Chill: 47°   Ceiling: 1400
Heat Index: 49°   Visibility: 10mi
Dew Point: 45°   Wind: 5mph
Humidity: 86%   Direction: NA
Pressure: 29.65"   Gusts: NA
Location:  43.8°N, 69.75°W
Report Text: KIWI 241853Z AUTO VRB04KT 10SM OVC014 09/07 A2965 RMK AO2 SLP041 T00940072
Loading
Personal Weather Stations






























Interactive Weather Map
Tropical Storm Tracking
New forecast layout! Learn more

10-Day Weather Forecast

Advertisements
Track Severe Weather on mobile